Time;durP1;ratioP1;P1;durP2;ratioP2;P2;SDS_P1;SDS_P2;PMS_P1;PMS_P2;Temp;Humidity;BMP_temperature;BMP_pressure;BME280_temperature;BME280_humidity;BME280_pressure;Samples;Min_cycle;Max_cycle;Signal;HPM_P1;HPM_P2
2023/08/07 00:00:34;;;;;;;0.17;0.17;;;;;;;;;;6192557;22;20039;-89
2023/08/07 00:03:00;;;;;;;0.10;0.10;;;;;;;;;;6189327;22;20016;-91
2023/08/07 00:05:26;;;;;;;0.10;0.10;;;;;;;;;;6190954;22;20061;-91
2023/08/07 00:08:02;;;;;;;0.10;0.10;;;;;;;;;;6190491;22;20381;-88
2023/08/07 00:10:28;;;;;;;0.10;0.10;;;;;;;;;;6190258;22;20017;-89
2023/08/07 00:12:54;;;;;;;0.20;0.20;;;;;;;;;;6191648;22;20042;-90
2023/08/07 00:15:20;;;;;;;0.10;0.10;;;;;;;;;;6192919;22;20016;-91
2023/08/07 00:17:46;;;;;;;0.20;0.20;;;;;;;;;;6191577;22;20017;-88
2023/08/07 00:20:12;;;;;;;0.10;0.10;;;;;;;;;;6191530;22;20027;-90
2023/08/07 00:22:38;;;;;;;0.10;0.10;;;;;;;;;;6191565;22;20020;-90
2023/08/07 00:25:04;;;;;;;0.10;0.10;;;;;;;;;;6191471;22;20016;-90
2023/08/07 00:27:30;;;;;;;0.10;0.10;;;;;;;;;;6191740;22;20056;-89
2023/08/07 00:29:57;;;;;;;0.10;0.10;;;;;;;;;;6190892;22;20455;-89
2023/08/07 00:32:23;;;;;;;0.20;0.20;;;;;;;;;;6192335;22;20020;-88
2023/08/07 00:34:49;;;;;;;0.20;0.20;;;;;;;;;;6194942;23;20019;-88
2023/08/07 00:37:15;;;;;;;0.28;0.28;;;;;;;;;;6193685;22;20451;-90
2023/08/07 00:39:41;;;;;;;0.22;0.22;;;;;;;;;;6199365;22;20031;-89
2023/08/07 00:42:07;;;;;;;0.10;0.10;;;;;;;;;;6194704;22;20021;-90
2023/08/07 00:44:33;;;;;;;0.20;0.20;;;;;;;;;;6191588;22;20016;-88
2023/08/07 00:46:59;;;;;;;0.20;0.20;;;;;;;;;;6195369;22;20050;-88
2023/08/07 00:49:30;;;;;;;0.17;0.17;;;;;;;;;;6206529;22;20024;-89
2023/08/07 00:52:05;;;;;;;0.20;0.20;;;;;;;;;;6199493;22;20012;-89
2023/08/07 00:54:32;;;;;;;0.10;0.10;;;;;;;;;;6194765;22;20024;-88
2023/08/07 00:57:08;;;;;;;0.20;0.20;;;;;;;;;;6276964;22;20016;-89
2023/08/07 00:59:34;;;;;;;0.13;0.13;;;;;;;;;;6191754;22;20158;-90
2023/08/07 01:02:00;;;;;;;0.20;0.20;;;;;;;;;;6190916;22;20021;-91
2023/08/07 01:04:26;;;;;;;0.30;0.30;;;;;;;;;;6192301;22;20097;-90
2023/08/07 01:06:52;;;;;;;0.10;0.10;;;;;;;;;;6197395;22;20039;-89
2023/08/07 01:09:18;;;;;;;0.10;0.10;;;;;;;;;;6192202;22;20013;-89
2023/08/07 01:11:46;;;;;;;0.20;0.20;;;;;;;;;;6202619;22;20005;-88
2023/08/07 01:14:51;;;;;;;0.13;0.13;;;;;;;;;;6203539;22;20042;-88
2023/08/07 01:17:20;;;;;;;0.10;0.10;;;;;;;;;;6196146;22;20007;-90
2023/08/07 01:19:47;;;;;;;0.20;0.20;;;;;;;;;;6200917;22;20017;-88
2023/08/07 01:22:15;;;;;;;0.30;0.30;;;;;;;;;;6191190;22;20435;-88
2023/08/07 01:24:44;;;;;;;0.20;0.20;;;;;;;;;;6195368;22;20020;-90
2023/08/07 01:27:19;;;;;;;0.17;0.17;;;;;;;;;;6194633;22;20020;-90
2023/08/07 01:30:00;;;;;;;0.15;0.15;;;;;;;;;;6203974;22;20013;-88
2023/08/07 01:32:29;;;;;;;0.20;0.20;;;;;;;;;;6207819;22;20026;-88
2023/08/07 01:34:57;;;;;;;0.30;0.30;;;;;;;;;;6194395;22;20000;-88
2023/08/07 01:37:24;;;;;;;0.20;0.20;;;;;;;;;;6205322;22;20096;-89
2023/08/07 01:40:12;;;;;;;0.10;0.10;;;;;;;;;;6327787;22;20040;-89
2023/08/07 01:42:43;;;;;;;0.17;0.17;;;;;;;;;;6238413;23;20027;-88
2023/08/07 01:45:09;;;;;;;0.20;0.20;;;;;;;;;;6289863;22;20017;-89
2023/08/07 01:47:38;;;;;;;0.10;0.10;;;;;;;;;;6211856;23;20016;-89
2023/08/07 01:50:08;;;;;;;0.10;0.10;;;;;;;;;;6211359;23;20009;-89
2023/08/07 01:52:41;;;;;;;0.20;0.20;;;;;;;;;;6236025;22;20008;-90
2023/08/07 01:55:10;;;;;;;0.20;0.20;;;;;;;;;;6212167;22;20012;-90
2023/08/07 01:57:54;;;;;;;0.10;0.10;;;;;;;;;;6210522;23;20020;-89
2023/08/07 02:00:38;;;;;;;0.20;0.20;;;;;;;;;;6235320;22;20016;-90
2023/08/07 02:03:16;;;;;;;0.10;0.10;;;;;;;;;;6237313;23;20020;-91
2023/08/07 02:05:49;;;;;;;0.10;0.10;;;;;;;;;;6236474;23;20085;-90
2023/08/07 02:08:49;;;;;;;0.22;0.22;;;;;;;;;;6236256;22;20042;-90
2023/08/07 02:11:20;;;;;;;0.20;0.20;;;;;;;;;;6210275;22;20009;-88
2023/08/07 02:13:49;;;;;;;0.10;0.10;;;;;;;;;;6210441;22;20017;-92
2023/08/07 02:16:17;;;;;;;0.20;0.20;;;;;;;;;;6211130;22;20052;-91
2023/08/07 02:18:57;;;;;;;0.20;0.20;;;;;;;;;;6238141;22;20001;-93
2023/08/07 02:21:23;;;;;;;0.10;0.10;;;;;;;;;;6206391;22;20001;-92
2023/08/07 02:23:56;;;;;;;0.10;0.10;;;;;;;;;;6188999;22;20017;-94
2023/08/07 02:26:27;;;;;;;0.10;0.10;;;;;;;;;;6217839;22;20048;-93
2023/08/07 02:29:11;;;;;;;0.20;0.20;;;;;;;;;;6239062;22;20135;-93
2023/08/07 02:31:41;;;;;;;0.10;0.10;;;;;;;;;;6215734;22;20024;-92
2023/08/07 02:34:08;;;;;;;0.10;0.10;;;;;;;;;;6209284;22;20017;-91
2023/08/07 02:36:41;;;;;;;0.10;0.10;;;;;;;;;;6203619;22;20004;-93
2023/08/07 02:39:07;;;;;;;0.10;0.10;;;;;;;;;;6212573;22;20027;-92
2023/08/07 02:41:33;;;;;;;0.10;0.10;;;;;;;;;;6206319;22;20028;-90
2023/08/07 02:43:59;;;;;;;0.30;0.30;;;;;;;;;;6209256;22;20016;-93
2023/08/07 02:46:28;;;;;;;0.20;0.20;;;;;;;;;;6210881;22;20024;-92
2023/08/07 02:48:54;;;;;;;0.10;0.10;;;;;;;;;;6205888;22;20048;-91
2023/08/07 02:51:20;;;;;;;0.15;0.15;;;;;;;;;;6203894;22;20064;-93
2023/08/07 02:53:47;;;;;;;0.10;0.10;;;;;;;;;;6205466;22;20044;-93
2023/08/07 02:56:18;;;;;;;0.10;0.10;;;;;;;;;;6343590;22;20072;-92
2023/08/07 02:58:47;;;;;;;0.10;0.10;;;;;;;;;;6228775;23;20009;-92
2023/08/07 03:01:23;;;;;;;0.10;0.10;;;;;;;;;;6238642;22;20027;-94
2023/08/07 03:03:58;;;;;;;0.20;0.20;;;;;;;;;;6235221;22;20016;-93
2023/08/07 03:06:24;;;;;;;0.10;0.10;;;;;;;;;;6211051;22;20027;-94
2023/08/07 03:12:22;;;;;;;0.20;0.20;;;;;;;;;;6241256;22;20017;-91
2023/08/07 03:14:50;;;;;;;0.10;0.10;;;;;;;;;;6209121;22;20017;-93
2023/08/07 03:17:17;;;;;;;0.10;0.10;;;;;;;;;;6212370;22;20052;-93
2023/08/07 03:19:56;;;;;;;0.20;0.20;;;;;;;;;;6211145;22;20026;-93
2023/08/07 03:22:22;;;;;;;0.20;0.20;;;;;;;;;;6208921;22;20005;-92
2023/08/07 03:24:48;;;;;;;0.20;0.20;;;;;;;;;;6211414;22;20013;-93
2023/08/07 03:27:15;;;;;;;0.20;0.20;;;;;;;;;;6211876;22;20042;-92
2023/08/07 03:29:41;;;;;;;0.20;0.20;;;;;;;;;;6212407;22;20028;-94
2023/08/07 03:32:15;;;;;;;0.00;0.00;;;;;;;;;;6212933;22;20024;-92
2023/08/07 03:34:41;;;;;;;0.10;0.10;;;;;;;;;;6291439;22;20016;-93
2023/08/07 03:37:07;;;;;;;0.10;0.10;;;;;;;;;;6206376;22;20017;-94
2023/08/07 03:39:35;;;;;;;0.20;0.20;;;;;;;;;;6284642;22;20017;-92
2023/08/07 03:42:02;;;;;;;0.20;0.20;;;;;;;;;;6206596;22;20016;-93
2023/08/07 03:44:30;;;;;;;0.10;0.10;;;;;;;;;;6208912;22;20348;-94
2023/08/07 03:46:57;;;;;;;0.15;0.15;;;;;;;;;;6209393;22;20004;-92
2023/08/07 03:49:27;;;;;;;0.20;0.20;;;;;;;;;;6237556;22;20016;-94
2023/08/07 03:51:58;;;;;;;0.10;0.10;;;;;;;;;;6234373;22;20011;-93
2023/08/07 03:54:25;;;;;;;0.10;0.10;;;;;;;;;;6210646;23;20009;-93
2023/08/07 03:56:54;;;;;;;0.10;0.10;;;;;;;;;;6229002;22;20035;-94
2023/08/07 03:59:20;;;;;;;0.10;0.10;;;;;;;;;;6195708;22;20577;-93
2023/08/07 04:01:57;;;;;;;0.10;0.10;;;;;;;;;;6204640;22;20001;-93
2023/08/07 04:04:23;;;;;;;0.10;0.10;;;;;;;;;;6201732;23;20027;-95
2023/08/07 04:06:59;;;;;;;0.20;0.20;;;;;;;;;;6202319;22;20011;-95
2023/08/07 04:09:34;;;;;;;0.20;0.20;;;;;;;;;;6233648;23;20024;-95
2023/08/07 04:12:00;;;;;;;0.20;0.20;;;;;;;;;;6205296;22;20035;-95
2023/08/07 04:14:27;;;;;;;0.10;0.10;;;;;;;;;;6195129;22;20052;-90
2023/08/07 04:17:00;;;;;;;0.10;0.10;;;;;;;;;;6206623;22;20012;-90
2023/08/07 04:19:32;;;;;;;0.10;0.10;;;;;;;;;;6203561;23;20091;-88
2023/08/07 04:21:59;;;;;;;0.10;0.10;;;;;;;;;;6196889;22;20013;-87
2023/08/07 04:24:25;;;;;;;0.10;0.10;;;;;;;;;;6193908;22;20403;-91
2023/08/07 04:26:57;;;;;;;0.20;0.20;;;;;;;;;;6205833;22;20021;-88
2023/08/07 04:29:25;;;;;;;0.20;0.20;;;;;;;;;;6209531;23;20433;-91
2023/08/07 04:31:51;;;;;;;0.20;0.20;;;;;;;;;;6199635;22;20046;-91
2023/08/07 04:34:17;;;;;;;0.10;0.10;;;;;;;;;;6197174;22;20017;-91
2023/08/07 04:36:43;;;;;;;0.20;0.20;;;;;;;;;;6197815;22;20000;-90
2023/08/07 04:39:23;;;;;;;0.00;0.00;;;;;;;;;;6195763;23;20017;-90
2023/08/07 04:42:09;;;;;;;0.10;0.10;;;;;;;;;;6197928;22;20501;-91
2023/08/07 04:44:40;;;;;;;0.20;0.20;;;;;;;;;;6199998;22;20351;-90
2023/08/07 04:47:07;;;;;;;0.10;0.10;;;;;;;;;;6201911;22;20001;-91
2023/08/07 04:49:33;;;;;;;0.10;0.10;;;;;;;;;;6198427;22;20027;-89
2023/08/07 04:52:00;;;;;;;0.10;0.10;;;;;;;;;;6195881;22;20044;-91
2023/08/07 04:54:26;;;;;;;0.10;0.10;;;;;;;;;;6205457;22;20013;-89
2023/08/07 04:56:52;;;;;;;0.10;0.10;;;;;;;;;;6205296;22;20127;-90
2023/08/07 04:59:18;;;;;;;0.20;0.20;;;;;;;;;;6196821;22;20343;-89
2023/08/07 05:01:45;;;;;;;0.10;0.10;;;;;;;;;;6199600;22;20068;-92
2023/08/07 05:04:21;;;;;;;0.10;0.10;;;;;;;;;;6199846;22;20024;-92
2023/08/07 05:06:48;;;;;;;0.03;0.03;;;;;;;;;;6203492;22;20397;-91
2023/08/07 05:09:15;;;;;;;0.08;0.08;;;;;;;;;;6204155;22;20060;-89
2023/08/07 05:11:41;;;;;;;0.10;0.10;;;;;;;;;;6198556;22;20023;-92
2023/08/07 05:14:10;;;;;;;0.03;0.03;;;;;;;;;;6203665;22;20016;-90
2023/08/07 05:16:39;;;;;;;0.10;0.10;;;;;;;;;;6200127;22;20017;-89
2023/08/07 05:19:06;;;;;;;0.10;0.10;;;;;;;;;;6195054;22;20047;-89
2023/08/07 05:21:35;;;;;;;0.10;0.10;;;;;;;;;;6195942;22;20016;-89
2023/08/07 05:24:06;;;;;;;0.10;0.10;;;;;;;;;;6202120;22;20050;-89
2023/08/07 05:26:32;;;;;;;0.20;0.20;;;;;;;;;;6199152;23;20028;-88
2023/08/07 05:28:58;;;;;;;0.10;0.10;;;;;;;;;;6197022;23;20070;-90
2023/08/07 05:31:25;;;;;;;0.05;0.05;;;;;;;;;;6203123;22;20011;-90
2023/08/07 05:33:51;;;;;;;0.10;0.10;;;;;;;;;;6283101;22;20451;-88
2023/08/07 05:36:17;;;;;;;0.10;0.10;;;;;;;;;;6202310;22;20031;-89
2023/08/07 05:38:47;;;;;;;0.10;0.10;;;;;;;;;;6202685;22;20023;-90
2023/08/07 05:41:22;;;;;;;0.20;0.20;;;;;;;;;;6203970;22;20040;-88
2023/08/07 05:43:48;;;;;;;0.10;0.10;;;;;;;;;;6202931;22;20016;-88
2023/08/07 05:46:15;;;;;;;0.13;0.13;;;;;;;;;;6203442;22;20350;-86
2023/08/07 05:48:42;;;;;;;0.20;0.20;;;;;;;;;;6203663;23;20021;-92
2023/08/07 05:51:09;;;;;;;0.20;0.20;;;;;;;;;;6207353;22;20000;-91
2023/08/07 05:53:39;;;;;;;0.10;0.10;;;;;;;;;;6210151;22;20017;-92
2023/08/07 05:56:05;;;;;;;0.10;0.10;;;;;;;;;;6206850;22;20819;-93
2023/08/07 05:58:31;;;;;;;0.20;0.20;;;;;;;;;;6208495;22;20028;-92
2023/08/07 06:00:59;;;;;;;0.10;0.10;;;;;;;;;;6203961;22;20025;-93
2023/08/07 06:03:25;;;;;;;0.10;0.10;;;;;;;;;;6233662;22;20042;-92
2023/08/07 06:05:54;;;;;;;0.10;0.10;;;;;;;;;;6206614;22;20020;-93
2023/08/07 06:11:18;;;;;;;0.13;0.13;;;;;;;;;;6206682;22;20028;-90
2023/08/07 06:13:45;;;;;;;0.13;0.13;;;;;;;;;;6209191;22;20010;-89
2023/08/07 06:16:11;;;;;;;0.10;0.10;;;;;;;;;;6210007;22;20019;-90
2023/08/07 06:18:40;;;;;;;0.10;0.10;;;;;;;;;;6210241;23;20008;-93
2023/08/07 06:21:10;;;;;;;0.10;0.10;;;;;;;;;;6209376;22;20017;-93
2023/08/07 06:23:49;;;;;;;0.10;0.10;;;;;;;;;;6210612;22;20016;-95
2023/08/07 06:26:21;;;;;;;0.17;0.17;;;;;;;;;;6270153;22;20015;-91
2023/08/07 06:28:50;;;;;;;0.10;0.10;;;;;;;;;;6246924;22;20063;-92
2023/08/07 06:31:23;;;;;;;0.20;0.20;;;;;;;;;;6245299;22;20031;-87
2023/08/07 06:33:50;;;;;;;0.10;0.10;;;;;;;;;;6244276;22;20054;-90
2023/08/07 06:36:17;;;;;;;0.20;0.20;;;;;;;;;;6239390;22;20019;-89
2023/08/07 06:38:45;;;;;;;0.15;0.15;;;;;;;;;;6245388;22;20026;-90
2023/08/07 06:41:17;;;;;;;0.10;0.10;;;;;;;;;;6271198;22;20014;-89
2023/08/07 06:43:54;;;;;;;0.10;0.10;;;;;;;;;;6243841;22;20019;-86
2023/08/07 06:46:24;;;;;;;0.10;0.10;;;;;;;;;;6244589;22;20020;-85
2023/08/07 06:48:53;;;;;;;0.10;0.10;;;;;;;;;;6243055;22;20022;-85
2023/08/07 06:51:19;;;;;;;0.10;0.10;;;;;;;;;;6269103;22;20039;-87
2023/08/07 06:54:10;;;;;;;0.10;0.10;;;;;;;;;;6266896;22;20039;-89
2023/08/07 06:56:45;;;;;;;0.10;0.10;;;;;;;;;;6265767;22;20483;-86
2023/08/07 06:59:12;;;;;;;0.20;0.20;;;;;;;;;;6264271;22;20019;-87
2023/08/07 07:01:39;;;;;;;0.15;0.15;;;;;;;;;;6239518;22;20038;-91
2023/08/07 07:04:07;;;;;;;0.10;0.10;;;;;;;;;;6218366;22;20071;-90
2023/08/07 07:06:39;;;;;;;0.30;0.30;;;;;;;;;;6241667;22;20043;-91
2023/08/07 07:09:05;;;;;;;0.10;0.10;;;;;;;;;;6243538;22;20027;-93
2023/08/07 07:11:37;;;;;;;0.20;0.20;;;;;;;;;;6269719;22;20030;-95
2023/08/07 07:14:03;;;;;;;0.10;0.10;;;;;;;;;;6245621;22;20019;-95
2023/08/07 07:16:29;;;;;;;0.20;0.20;;;;;;;;;;6246097;22;20055;-95
2023/08/07 07:18:58;;;;;;;0.10;0.10;;;;;;;;;;6242714;22;20012;-87
2023/08/07 07:21:28;;;;;;;0.08;0.08;;;;;;;;;;6269776;22;20002;-88
2023/08/07 07:23:54;;;;;;;0.10;0.10;;;;;;;;;;6244525;22;20050;-89
2023/08/07 07:26:27;;;;;;;0.13;0.13;;;;;;;;;;6272524;22;20031;-92
2023/08/07 07:28:59;;;;;;;0.10;0.10;;;;;;;;;;6273817;22;20026;-90
2023/08/07 07:31:26;;;;;;;0.17;0.17;;;;;;;;;;6290698;22;20015;-87
2023/08/07 07:33:52;;;;;;;0.20;0.20;;;;;;;;;;6265514;22;20088;-87
2023/08/07 07:36:20;;;;;;;0.20;0.20;;;;;;;;;;6263483;22;20071;-86
2023/08/07 07:38:47;;;;;;;0.15;0.15;;;;;;;;;;6264506;22;20023;-84
2023/08/07 07:41:17;;;;;;;0.10;0.10;;;;;;;;;;6233442;22;20030;-87
2023/08/07 07:43:43;;;;;;;0.10;0.10;;;;;;;;;;6258550;22;20023;-88
2023/08/07 07:46:09;;;;;;;0.10;0.10;;;;;;;;;;6235477;22;20468;-91
2023/08/07 07:48:36;;;;;;;0.10;0.10;;;;;;;;;;6240079;22;20020;-89
2023/08/07 07:51:03;;;;;;;0.00;0.00;;;;;;;;;;6240999;22;20027;-95
2023/08/07 07:53:29;;;;;;;0.17;0.17;;;;;;;;;;6273012;22;20061;-96
2023/08/07 07:55:58;;;;;;;0.10;0.10;;;;;;;;;;6241527;22;20026;-93
2023/08/07 07:58:24;;;;;;;0.20;0.20;;;;;;;;;;6243801;22;20014;-94
2023/08/07 08:01:08;;;;;;;0.10;0.10;;;;;;;;;;6246307;22;20020;-95
2023/08/07 08:03:34;;;;;;;0.20;0.20;;;;;;;;;;6280032;22;20044;-94
2023/08/07 08:08:36;;;;;;;0.10;0.10;;;;;;;;;;6262395;22;20015;-94
2023/08/07 08:11:02;;;;;;;0.20;0.20;;;;;;;;;;6213381;22;20395;-92
2023/08/07 08:13:33;;;;;;;0.10;0.10;;;;;;;;;;6215540;22;20060;-89
2023/08/07 08:16:00;;;;;;;0.10;0.10;;;;;;;;;;6214178;22;20021;-90
2023/08/07 08:18:28;;;;;;;0.10;0.10;;;;;;;;;;6211421;22;20008;-89
2023/08/07 08:20:55;;;;;;;0.10;0.10;;;;;;;;;;6236551;23;20011;-90
2023/08/07 08:23:32;;;;;;;0.10;0.10;;;;;;;;;;6237265;23;20013;-90
2023/08/07 08:25:59;;;;;;;0.10;0.10;;;;;;;;;;6211724;22;20017;-92
2023/08/07 08:28:28;;;;;;;0.10;0.10;;;;;;;;;;6211453;22;20095;-87
2023/08/07 08:31:02;;;;;;;0.10;0.10;;;;;;;;;;6214635;23;20024;-87
2023/08/07 08:33:28;;;;;;;0.10;0.10;;;;;;;;;;6211261;22;20103;-87
2023/08/07 08:35:55;;;;;;;0.10;0.10;;;;;;;;;;6205561;22;20019;-89
2023/08/07 08:38:23;;;;;;;0.10;0.10;;;;;;;;;;6229528;23;20020;-93
2023/08/07 08:40:52;;;;;;;0.00;0.00;;;;;;;;;;6184615;23;20051;-94
2023/08/07 08:43:21;;;;;;;0.10;0.10;;;;;;;;;;6208067;22;20041;-92
2023/08/07 08:45:50;;;;;;;0.10;0.10;;;;;;;;;;6206845;22;20012;-91
2023/08/07 08:48:23;;;;;;;0.10;0.10;;;;;;;;;;6211319;22;20016;-92
2023/08/07 08:50:57;;;;;;;0.00;0.00;;;;;;;;;;6208951;23;20024;-96
2023/08/07 08:53:28;;;;;;;0.10;0.10;;;;;;;;;;6215811;22;20067;-95
2023/08/07 08:55:59;;;;;;;0.00;0.00;;;;;;;;;;6215833;22;20031;-93
2023/08/07 08:58:27;;;;;;;0.10;0.10;;;;;;;;;;6243589;22;20024;-91
2023/08/07 09:08:44;;;;;;;0.10;0.10;;;;;;;;;;6210803;22;20055;-93
2023/08/07 09:11:19;;;;;;;0.08;0.08;;;;;;;;;;6208262;22;20016;-91
2023/08/07 09:13:50;;;;;;;0.10;0.10;;;;;;;;;;6234129;22;20052;-92
2023/08/07 09:16:27;;;;;;;0.15;0.15;;;;;;;;;;6207754;22;20031;-96
2023/08/07 09:18:55;;;;;;;0.10;0.10;;;;;;;;;;6206825;22;20042;-91
2023/08/07 09:21:22;;;;;;;0.10;0.10;;;;;;;;;;6206827;22;20046;-90
2023/08/07 09:23:48;;;;;;;0.10;0.10;;;;;;;;;;6285432;22;20068;-92
2023/08/07 09:26:14;;;;;;;0.05;0.05;;;;;;;;;;6203701;22;20017;-93
2023/08/07 09:28:40;;;;;;;0.10;0.10;;;;;;;;;;6207323;22;20017;-94
2023/08/07 09:31:09;;;;;;;0.10;0.10;;;;;;;;;;6203101;22;20024;-89
2023/08/07 09:33:35;;;;;;;0.10;0.10;;;;;;;;;;6203446;23;20355;-95
2023/08/07 09:36:02;;;;;;;0.10;0.10;;;;;;;;;;6207789;22;20009;-93
2023/08/07 09:38:52;;;;;;;0.10;0.10;;;;;;;;;;6201987;22;20032;-95
2023/08/07 09:41:23;;;;;;;0.08;0.08;;;;;;;;;;6201242;22;20040;-94
2023/08/07 09:43:58;;;;;;;0.10;0.10;;;;;;;;;;6202632;22;20024;-94
2023/08/07 09:46:28;;;;;;;0.10;0.10;;;;;;;;;;6226307;22;20043;-93
2023/08/07 09:48:59;;;;;;;0.00;0.00;;;;;;;;;;6202895;23;20423;-96
2023/08/07 09:51:25;;;;;;;0.10;0.10;;;;;;;;;;6203129;22;20012;-93
2023/08/07 09:53:51;;;;;;;0.00;0.00;;;;;;;;;;6201099;22;20041;-96
2023/08/07 09:56:19;;;;;;;0.20;0.20;;;;;;;;;;6200310;22;20017;-94
2023/08/07 09:58:59;;;;;;;0.20;0.20;;;;;;;;;;6201274;22;20016;-91
2023/08/07 10:01:26;;;;;;;0.10;0.10;;;;;;;;;;6282571;22;20023;-91
2023/08/07 10:03:53;;;;;;;0.10;0.10;;;;;;;;;;6204351;23;20032;-95
2023/08/07 10:06:19;;;;;;;0.10;0.10;;;;;;;;;;6201649;22;20149;-93
2023/08/07 10:08:46;;;;;;;0.10;0.10;;;;;;;;;;6201609;22;20046;-95
2023/08/07 10:11:14;;;;;;;0.10;0.10;;;;;;;;;;6199982;22;20100;-95
2023/08/07 10:13:41;;;;;;;0.10;0.10;;;;;;;;;;6206483;23;20008;-95
2023/08/07 10:16:07;;;;;;;0.00;0.00;;;;;;;;;;6206623;22;20030;-96
2023/08/07 10:18:34;;;;;;;0.00;0.00;;;;;;;;;;6202298;22;20090;-96
2023/08/07 10:21:02;;;;;;;0.10;0.10;;;;;;;;;;6201116;23;20000;-93
2023/08/07 10:23:28;;;;;;;0.10;0.10;;;;;;;;;;6199600;22;20029;-93
2023/08/07 10:25:55;;;;;;;0.17;0.17;;;;;;;;;;6203412;22;20043;-96
2023/08/07 10:36:10;;;;;;;0.00;0.00;;;;;;;;;;6230170;22;20024;-96
2023/08/07 10:38:39;;;;;;;0.10;0.10;;;;;;;;;;6303166;22;20020;-95
2023/08/07 10:41:09;;;;;;;0.00;0.00;;;;;;;;;;6199856;23;20072;-95
2023/08/07 10:43:43;;;;;;;0.10;0.10;;;;;;;;;;6202807;23;20021;-96
2023/08/07 10:46:13;;;;;;;0.10;0.10;;;;;;;;;;6208542;22;20016;-94
2023/08/07 10:48:40;;;;;;;0.10;0.10;;;;;;;;;;6208190;22;20007;-95
2023/08/07 10:51:07;;;;;;;0.10;0.10;;;;;;;;;;6204317;22;20046;-93
2023/08/07 10:53:55;;;;;;;0.10;0.10;;;;;;;;;;6223641;22;20022;-92
2023/08/07 10:56:32;;;;;;;0.20;0.20;;;;;;;;;;6242995;22;20028;-92
2023/08/07 10:59:11;;;;;;;0.10;0.10;;;;;;;;;;6241654;22;20003;-95
2023/08/07 11:01:40;;;;;;;0.10;0.10;;;;;;;;;;6241086;22;20023;-95
2023/08/07 11:04:26;;;;;;;0.10;0.10;;;;;;;;;;6238051;22;20022;-92
2023/08/07 11:06:52;;;;;;;0.10;0.10;;;;;;;;;;6233732;22;20008;-91
2023/08/07 11:09:18;;;;;;;0.10;0.10;;;;;;;;;;6237935;22;20012;-92
2023/08/07 11:11:46;;;;;;;0.10;0.10;;;;;;;;;;6233000;22;20080;-92
2023/08/07 11:14:19;;;;;;;0.00;0.00;;;;;;;;;;6239599;22;20059;-95
2023/08/07 11:16:48;;;;;;;0.10;0.10;;;;;;;;;;6234409;22;20016;-93
2023/08/07 11:19:16;;;;;;;0.10;0.10;;;;;;;;;;6232647;22;20064;-93
2023/08/07 11:21:43;;;;;;;0.03;0.03;;;;;;;;;;6210963;22;20862;-95
2023/08/07 11:24:09;;;;;;;0.10;0.10;;;;;;;;;;6237389;22;20347;-93
2023/08/07 11:26:35;;;;;;;0.17;0.17;;;;;;;;;;6233339;22;20022;-92
2023/08/07 11:29:07;;;;;;;0.13;0.13;;;;;;;;;;6234917;22;20003;-96
2023/08/07 11:31:33;;;;;;;0.10;0.10;;;;;;;;;;6233838;22;20004;-93
2023/08/07 11:33:59;;;;;;;0.17;0.17;;;;;;;;;;6239774;22;20058;-92
2023/08/07 11:36:25;;;;;;;0.10;0.10;;;;;;;;;;6236682;22;20023;-91
2023/08/07 11:38:51;;;;;;;0.08;0.08;;;;;;;;;;6237873;22;20088;-95
2023/08/07 11:41:19;;;;;;;0.10;0.10;;;;;;;;;;6260625;22;20048;-91
2023/08/07 11:43:45;;;;;;;0.10;0.10;;;;;;;;;;6234547;22;20015;-92
2023/08/07 11:46:12;;;;;;;0.10;0.10;;;;;;;;;;6235124;22;20015;-93
2023/08/07 11:48:39;;;;;;;0.10;0.10;;;;;;;;;;6237822;22;20027;-90
2023/08/07 11:51:06;;;;;;;0.10;0.10;;;;;;;;;;6239922;22;20000;-91
2023/08/07 11:53:33;;;;;;;0.13;0.13;;;;;;;;;;6240197;22;20024;-93
2023/08/07 11:56:17;;;;;;;0.17;0.17;;;;;;;;;;6241750;22;20011;-89
2023/08/07 11:58:48;;;;;;;0.28;0.28;;;;;;;;;;6242940;22;20023;-88
2023/08/07 12:01:27;;;;;;;0.10;0.10;;;;;;;;;;6264904;22;20041;-91
2023/08/07 12:03:58;;;;;;;0.10;0.10;;;;;;;;;;6240007;22;20023;-92
2023/08/07 12:06:25;;;;;;;0.08;0.08;;;;;;;;;;6240622;22;20011;-89
2023/08/07 12:08:54;;;;;;;0.03;0.03;;;;;;;;;;6237206;22;20023;-91
2023/08/07 12:11:21;;;;;;;0.10;0.10;;;;;;;;;;6234847;22;20051;-92
2023/08/07 12:13:47;;;;;;;0.00;0.00;;;;;;;;;;6229758;22;20015;-90
2023/08/07 12:16:15;;;;;;;0.10;0.10;;;;;;;;;;6237403;22;20016;-91
2023/08/07 12:18:51;;;;;;;0.00;0.00;;;;;;;;;;6233343;22;20020;-92
2023/08/07 12:21:25;;;;;;;0.13;0.13;;;;;;;;;;6243332;22;20034;-90
2023/08/07 12:23:51;;;;;;;0.10;0.10;;;;;;;;;;6230593;22;20019;-89
2023/08/07 12:26:18;;;;;;;0.10;0.10;;;;;;;;;;6234744;22;20020;-92
2023/08/07 12:28:44;;;;;;;0.10;0.10;;;;;;;;;;6236819;22;20019;-88
2023/08/07 12:31:10;;;;;;;0.10;0.10;;;;;;;;;;6239836;22;20024;-90
2023/08/07 12:33:36;;;;;;;0.20;0.20;;;;;;;;;;6238880;22;20019;-91
2023/08/07 12:36:06;;;;;;;0.10;0.10;;;;;;;;;;6268608;22;20026;-93
2023/08/07 12:38:33;;;;;;;0.10;0.10;;;;;;;;;;6246108;22;20020;-95
2023/08/07 12:41:19;;;;;;;0.00;0.00;;;;;;;;;;6292452;22;20034;-95
2023/08/07 12:43:48;;;;;;;0.10;0.10;;;;;;;;;;6272199;22;20015;-89
2023/08/07 12:46:14;;;;;;;0.10;0.10;;;;;;;;;;6235421;22;20094;-91
2023/08/07 12:48:40;;;;;;;0.15;0.15;;;;;;;;;;6267193;22;20611;-90
2023/08/07 12:51:10;;;;;;;0.10;0.10;;;;;;;;;;6237979;22;20020;-92
2023/08/07 12:53:36;;;;;;;0.20;0.20;;;;;;;;;;6236626;22;20067;-90
2023/08/07 12:56:05;;;;;;;0.10;0.10;;;;;;;;;;6229630;22;20027;-89
2023/08/07 12:58:31;;;;;;;0.10;0.10;;;;;;;;;;6234844;22;20019;-89
2023/08/07 13:01:10;;;;;;;0.10;0.10;;;;;;;;;;6230715;22;20018;-91
2023/08/07 13:03:36;;;;;;;0.10;0.10;;;;;;;;;;6257519;22;20019;-88
2023/08/07 13:06:05;;;;;;;0.20;0.20;;;;;;;;;;6254610;22;20016;-90
2023/08/07 13:08:33;;;;;;;0.20;0.20;;;;;;;;;;6227495;22;20315;-89
2023/08/07 13:10:59;;;;;;;0.10;0.10;;;;;;;;;;6230914;22;20023;-89
2023/08/07 13:13:27;;;;;;;0.20;0.20;;;;;;;;;;6231412;22;20474;-89
2023/08/07 13:15:53;;;;;;;0.10;0.10;;;;;;;;;;6232972;22;20020;-90
2023/08/07 13:18:19;;;;;;;0.10;0.10;;;;;;;;;;6238698;22;20021;-90
2023/08/07 13:20:45;;;;;;;0.20;0.20;;;;;;;;;;6232392;22;20071;-90
2023/08/07 13:23:12;;;;;;;0.10;0.10;;;;;;;;;;6230305;22;20090;-89
2023/08/07 13:25:38;;;;;;;0.20;0.20;;;;;;;;;;6232672;22;20020;-91
2023/08/07 13:28:06;;;;;;;0.20;0.20;;;;;;;;;;6229088;22;20079;-90
2023/08/07 13:30:35;;;;;;;0.10;0.10;;;;;;;;;;6231174;22;20123;-89
2023/08/07 13:33:01;;;;;;;0.20;0.20;;;;;;;;;;6234127;22;20046;-90
2023/08/07 13:35:27;;;;;;;0.20;0.20;;;;;;;;;;6233704;22;20016;-89
2023/08/07 13:37:54;;;;;;;0.10;0.10;;;;;;;;;;6255449;22;20016;-90
2023/08/07 13:40:20;;;;;;;0.20;0.20;;;;;;;;;;6232755;22;20026;-89
2023/08/07 13:42:47;;;;;;;0.30;0.30;;;;;;;;;;6233173;22;20030;-88
2023/08/07 13:45:13;;;;;;;0.10;0.10;;;;;;;;;;6235526;22;20043;-89
2023/08/07 13:47:42;;;;;;;0.10;0.10;;;;;;;;;;6245965;22;20004;-89
2023/08/07 13:50:12;;;;;;;0.20;0.20;;;;;;;;;;6237945;22;20051;-89
2023/08/07 13:52:39;;;;;;;0.20;0.20;;;;;;;;;;6262804;22;20245;-89
2023/08/07 13:55:06;;;;;;;0.10;0.10;;;;;;;;;;6233835;22;20354;-90
2023/08/07 13:57:33;;;;;;;0.10;0.10;;;;;;;;;;6233051;22;20502;-92
2023/08/07 14:00:02;;;;;;;0.13;0.13;;;;;;;;;;6260015;22;20349;-89
2023/08/07 14:02:28;;;;;;;0.10;0.10;;;;;;;;;;6231911;23;20044;-91
2023/08/07 14:04:57;;;;;;;0.17;0.17;;;;;;;;;;6256359;22;20073;-91
2023/08/07 14:07:30;;;;;;;0.17;0.17;;;;;;;;;;6262859;22;20370;-89
2023/08/07 14:09:56;;;;;;;0.10;0.10;;;;;;;;;;6255921;22;20095;-89
2023/08/07 14:12:23;;;;;;;0.20;0.20;;;;;;;;;;6228190;22;20016;-89
2023/08/07 14:14:49;;;;;;;0.10;0.10;;;;;;;;;;6244869;23;20012;-92
2023/08/07 14:17:15;;;;;;;0.10;0.10;;;;;;;;;;6228311;22;20012;-90
2023/08/07 14:19:41;;;;;;;0.20;0.20;;;;;;;;;;6230864;22;20100;-92
2023/08/07 14:22:10;;;;;;;0.20;0.20;;;;;;;;;;6204761;22;20016;-92
2023/08/07 14:24:36;;;;;;;0.20;0.20;;;;;;;;;;6230063;22;20027;-91
2023/08/07 14:27:02;;;;;;;0.10;0.10;;;;;;;;;;6236253;22;20020;-92
2023/08/07 14:29:28;;;;;;;0.10;0.10;;;;;;;;;;6229649;22;20028;-92
2023/08/07 14:31:54;;;;;;;0.20;0.20;;;;;;;;;;6231267;22;20061;-90
2023/08/07 14:37:04;;;;;;;0.20;0.20;;;;;;;;;;6259409;22;20029;-92
2023/08/07 14:39:30;;;;;;;0.10;0.10;;;;;;;;;;6189524;22;20020;-93
2023/08/07 14:49:44;;;;;;;0.10;0.10;;;;;;;;;;6232472;22;20047;-93
2023/08/07 14:59:57;;;;;;;0.10;0.10;;;;;;;;;;6253043;22;20028;-91
2023/08/07 15:02:24;;;;;;;0.20;0.20;;;;;;;;;;6207145;23;20445;-92
2023/08/07 15:04:51;;;;;;;0.17;0.17;;;;;;;;;;6205791;23;20358;-92
2023/08/07 15:07:17;;;;;;;0.10;0.10;;;;;;;;;;6208995;23;20023;-90
2023/08/07 15:09:43;;;;;;;0.10;0.10;;;;;;;;;;6207307;23;20099;-92
2023/08/07 15:12:12;;;;;;;0.10;0.10;;;;;;;;;;6205177;23;20012;-91
2023/08/07 15:14:38;;;;;;;0.10;0.10;;;;;;;;;;6211704;23;20020;-93
2023/08/07 15:17:05;;;;;;;0.20;0.20;;;;;;;;;;6205941;23;20055;-90
2023/08/07 15:19:31;;;;;;;0.10;0.10;;;;;;;;;;6204523;23;20016;-89
2023/08/07 15:21:57;;;;;;;0.20;0.20;;;;;;;;;;6206586;23;20039;-92
2023/08/07 15:24:26;;;;;;;0.10;0.10;;;;;;;;;;6209899;23;20012;-90
2023/08/07 15:26:52;;;;;;;0.15;0.15;;;;;;;;;;6206532;23;20016;-89
2023/08/07 15:29:18;;;;;;;0.20;0.20;;;;;;;;;;6202455;23;20016;-92
2023/08/07 15:31:44;;;;;;;0.20;0.20;;;;;;;;;;6206211;23;20023;-90
2023/08/07 15:34:13;;;;;;;0.20;0.20;;;;;;;;;;6206650;23;20012;-92
2023/08/07 15:36:43;;;;;;;0.10;0.10;;;;;;;;;;6212280;23;20060;-94